Search for airport 
image banner adimage banner adimage banner ad
image banner ad

16CA - Police Pistol Range

Located in San Francisco, United States

ICAO - 16CA, IATA -

Data provided by Airmate  

General information

Coordinates: N37°43'12" W122°29'57"
Elevation is 24 feet MSL.
Magnetic variation is 16° East
View others Airports in California

Operational data

Special qualification required
Current time UTC:
Current local time:
Weather at : KSFO - San Francisco Intl ( 16 km )
METAR: KSFO 292056Z 31015KT 10SM FEW006 BKN140 BKN180 21/13 A2992 RMK AO2 SLP132 T02110133 58011 $
TAF: KSFO 292054Z 2921/3024 31018KT P6SM FEW180 FM300400 30011KT P6SM FEW010 FEW150 FM301000 29005KT P6SM SCT008 FM301600 28007KT P6SM FEW150 FM302100 30015KT P6SM FEW150
View NOTAMs / SUP AIP / TFR affecting this airport [VIEW]
Communications frequencies: [VIEW]

Runways:

Airport contact information

Address: San Francisco United States

Satellite view of 16CA